Time;durP1;ratioP1;P1;durP2;ratioP2;P2;SDS_P1;SDS_P2;PMS_P1;PMS_P2;Temp;Humidity;BMP_temperature;BMP_pressure;BME280_temperature;BME280_humidity;BME280_pressure;Samples;Min_cycle;Max_cycle;Signal;HPM_P1;HPM_P2
2024/01/02 00:00:35;;;;;;;0.67;0.50;;;;;;;4.79;87.71;95009.47;4374180;32;20285;-72
2024/01/02 00:03:01;;;;;;;1.23;0.83;;;;;;;4.58;88.92;95002.63;4385704;32;20359;-72
2024/01/02 00:05:27;;;;;;;0.73;0.60;;;;;;;4.67;88.32;95003.69;4371863;32;20195;-71
2024/01/02 00:07:53;;;;;;;0.40;0.40;;;;;;;4.38;89.30;95008.69;4371500;32;20208;-72
2024/01/02 00:10:18;;;;;;;0.37;0.37;;;;;;;4.52;89.21;95008.19;4357775;32;20348;-72
2024/01/02 00:12:44;;;;;;;0.80;0.70;;;;;;;4.63;88.57;95000.03;4350755;32;20196;-72
2024/01/02 00:15:11;;;;;;;0.27;0.27;;;;;;;4.58;88.62;94988.72;4380515;32;20180;-72
2024/01/02 00:17:38;;;;;;;2.00;0.87;;;;;;;4.41;89.13;94994.25;4381147;32;20455;-71
2024/01/02 00:20:06;;;;;;;0.60;0.60;;;;;;;4.47;88.99;94991.38;4373605;32;20387;-72
2024/01/02 00:22:33;;;;;;;0.27;0.27;;;;;;;4.73;87.68;94980.84;4370108;32;20288;-72
2024/01/02 00:25:00;;;;;;;0.40;0.40;;;;;;;4.69;87.60;94977.97;4367120;32;20342;-71
2024/01/02 00:27:25;;;;;;;0.60;0.60;;;;;;;4.64;87.53;94983.22;4363733;32;20305;-72
2024/01/02 00:29:50;;;;;;;0.30;0.30;;;;;;;4.71;86.96;94967.97;4352507;32;20288;-71
2024/01/02 00:32:17;;;;;;;0.30;0.30;;;;;;;4.52;87.40;94969.56;4364696;32;20208;-72
2024/01/02 00:34:42;;;;;;;0.20;0.20;;;;;;;4.57;87.14;94972.19;4387950;32;20224;-72
2024/01/02 00:37:11;;;;;;;0.50;0.50;;;;;;;4.65;86.59;94966.41;4358555;32;20363;-72
2024/01/02 00:39:37;;;;;;;0.93;0.43;;;;;;;4.52;86.34;94958.28;4376019;32;20332;-72
2024/01/02 00:42:02;;;;;;;1.00;0.90;;;;;;;4.49;86.82;94956.97;4378640;32;20280;-71
2024/01/02 00:44:27;;;;;;;0.43;0.43;;;;;;;4.38;86.60;94956.16;4348378;32;20240;-72
2024/01/02 00:46:53;;;;;;;0.23;0.23;;;;;;;4.55;86.48;94963.00;4363760;32;20268;-72
2024/01/02 00:49:19;;;;;;;0.20;0.20;;;;;;;4.69;85.29;94950.91;4370192;32;20177;-71
2024/01/02 00:51:45;;;;;;;0.07;0.07;;;;;;;4.61;85.21;94952.22;4392129;32;20201;-72
2024/01/02 00:54:13;;;;;;;0.10;0.10;;;;;;;4.46;85.79;94952.22;4386403;32;20280;-72
2024/01/02 00:56:38;;;;;;;0.50;0.50;;;;;;;4.38;86.36;94945.66;4352450;32;20378;-73
2024/01/02 00:59:04;;;;;;;0.20;0.20;;;;;;;4.16;87.17;94941.75;4348955;32;20273;-73
2024/01/02 01:01:31;;;;;;;0.03;0.03;;;;;;;4.26;86.54;94931.22;4363218;32;20193;-73
2024/01/02 01:03:56;;;;;;;0.20;0.20;;;;;;;4.30;86.02;94934.91;4357126;32;20188;-72
2024/01/02 01:06:22;;;;;;;0.40;0.40;;;;;;;4.41;85.54;94926.75;4389271;32;20313;-71
2024/01/02 01:08:47;;;;;;;0.10;0.10;;;;;;;4.27;85.53;94925.72;4352590;32;20220;-71
2024/01/02 01:11:12;;;;;;;0.43;0.40;;;;;;;4.22;85.72;94923.09;4346941;32;20184;-72
2024/01/02 01:13:39;;;;;;;0.30;0.30;;;;;;;4.36;85.36;94918.13;4318251;32;20293;-72
2024/01/02 01:16:05;;;;;;;2.60;0.43;;;;;;;4.37;85.31;94909.94;4313015;32;20271;-72
2024/01/02 01:18:30;;;;;;;0.10;0.10;;;;;;;4.52;83.81;94906.53;4298659;32;20384;-72
2024/01/02 01:20:56;;;;;;;0.30;0.30;;;;;;;4.59;83.67;94907.03;4341588;32;20277;-72
2024/01/02 01:23:22;;;;;;;1.70;0.67;;;;;;;4.63;83.43;94902.03;4330869;32;20189;-72
2024/01/02 01:25:47;;;;;;;0.73;0.73;;;;;;;4.40;83.65;94903.38;4386558;32;20288;-71
2024/01/02 01:28:12;;;;;;;0.10;0.10;;;;;;;4.20;84.41;94898.94;4373775;32;20177;-72
2024/01/02 01:30:38;;;;;;;0.20;0.20;;;;;;;4.12;84.47;94902.91;4374707;32;20184;-72
2024/01/02 01:33:07;;;;;;;0.20;0.20;;;;;;;4.02;84.86;94900.25;4374996;32;20203;-72
2024/01/02 01:35:33;;;;;;;0.40;0.33;;;;;;;4.06;85.23;94892.66;4389044;32;20263;-72
2024/01/02 01:37:58;;;;;;;0.20;0.20;;;;;;;4.26;84.55;94892.66;4366870;32;20419;-72
2024/01/02 01:40:24;;;;;;;0.20;0.20;;;;;;;4.37;84.04;94891.56;4375538;32;20264;-72
2024/01/02 01:42:50;;;;;;;0.73;0.30;;;;;;;4.34;83.54;94893.97;4378335;32;20415;-72
2024/01/02 01:45:18;;;;;;;0.20;0.20;;;;;;;4.36;83.78;94894.50;4390081;32;20245;-72
2024/01/02 01:47:45;;;;;;;0.93;0.30;;;;;;;4.32;83.82;94896.84;4388215;32;20235;-72
2024/01/02 01:50:11;;;;;;;0.33;0.30;;;;;;;4.29;83.38;94901.84;4366108;32;20281;-72
2024/01/02 01:52:39;;;;;;;0.20;0.20;;;;;;;4.52;82.85;94901.28;4368415;32;20378;-72
2024/01/02 01:55:07;;;;;;;0.23;0.23;;;;;;;4.55;82.56;94894.72;4359998;32;20289;-72
2024/01/02 01:57:34;;;;;;;0.00;0.00;;;;;;;4.66;81.69;94897.06;4372974;32;20301;-72
2024/01/02 02:00:00;;;;;;;0.83;0.53;;;;;;;4.79;81.43;94891.22;4379912;32;20342;-72
2024/01/02 02:02:31;;;;;;;0.90;0.70;;;;;;;4.84;81.02;94890.44;4379286;32;20325;-72
2024/01/02 02:04:59;;;;;;;1.17;0.40;;;;;;;4.92;80.20;94899.63;4341731;32;20273;-72
2024/01/02 02:07:30;;;;;;;0.13;0.13;;;;;;;4.79;81.17;94888.59;4351715;32;20288;-71
2024/01/02 02:09:56;;;;;;;0.20;0.20;;;;;;;4.51;81.58;94891.03;4377240;32;20299;-72
2024/01/02 02:12:23;;;;;;;0.37;0.37;;;;;;;4.55;81.78;94886.84;4361059;32;20344;-72
2024/01/02 02:14:52;;;;;;;0.43;0.43;;;;;;;4.71;81.24;94883.12;4374372;32;20394;-72
2024/01/02 02:17:19;;;;;;;0.23;0.23;;;;;;;4.62;81.19;94879.44;4366798;32;20291;-71
2024/01/02 02:19:46;;;;;;;0.30;0.30;;;;;;;4.64;81.27;94869.47;4382911;32;20277;-72
2024/01/02 02:22:17;;;;;;;0.10;0.10;;;;;;;4.69;80.97;94865.00;4374100;32;20338;-72
2024/01/02 02:24:42;;;;;;;0.60;0.13;;;;;;;4.73;80.71;94863.41;4373471;32;20308;-72
2024/01/02 02:27:16;;;;;;;0.00;0.00;;;;;;;4.73;80.55;94855.53;4367448;32;20267;-72
2024/01/02 02:29:43;;;;;;;0.30;0.30;;;;;;;4.72;80.55;94850.53;4382674;32;20216;-72
2024/01/02 02:32:11;;;;;;;0.10;0.10;;;;;;;4.80;80.14;94855.22;4354799;32;20284;-72
2024/01/02 02:34:37;;;;;;;0.10;0.10;;;;;;;4.56;81.08;94854.28;4363698;32;20359;-72
2024/01/02 02:37:04;;;;;;;0.50;0.50;;;;;;;4.69;80.86;94857.13;4320069;32;20277;-72
2024/01/02 02:39:29;;;;;;;0.03;0.03;;;;;;;4.58;81.32;94857.41;4344775;32;20273;-72
2024/01/02 02:41:57;;;;;;;0.13;0.13;;;;;;;4.83;80.62;94847.59;4374377;32;20276;-72
2024/01/02 02:44:22;;;;;;;0.23;0.23;;;;;;;5.01;79.57;94842.78;4378709;32;20284;-72
2024/01/02 02:46:48;;;;;;;0.50;0.50;;;;;;;5.01;79.58;94830.44;4380724;32;20291;-72
2024/01/02 02:49:14;;;;;;;0.17;0.17;;;;;;;4.97;79.47;94824.19;4382694;32;20291;-71
2024/01/02 02:51:41;;;;;;;0.40;0.40;;;;;;;4.89;79.54;94834.44;4386572;32;20180;-72
2024/01/02 02:54:06;;;;;;;0.07;0.07;;;;;;;5.01;79.28;94834.91;4372086;32;20380;-72
2024/01/02 02:56:34;;;;;;;0.47;0.23;;;;;;;4.74;79.79;94835.31;4349293;32;20340;-71
2024/01/02 02:59:01;;;;;;;0.30;0.30;;;;;;;4.90;79.55;94828.13;4372113;32;20184;-72
2024/01/02 03:01:26;;;;;;;0.20;0.20;;;;;;;4.96;78.97;94824.44;4348547;32;20343;-72
2024/01/02 03:03:51;;;;;;;0.20;0.20;;;;;;;4.95;79.35;94815.78;4358189;32;20280;-68
2024/01/02 03:06:17;;;;;;;0.67;0.67;;;;;;;4.94;78.88;94816.81;4379799;32;20291;-71
2024/01/02 03:08:44;;;;;;;0.30;0.20;;;;;;;4.94;78.70;94814.19;4388223;32;20188;-73
2024/01/02 03:11:12;;;;;;;0.20;0.20;;;;;;;5.11;78.26;94808.59;4374294;32;20339;-72
2024/01/02 03:13:37;;;;;;;0.20;0.20;;;;;;;5.07;77.84;94812.81;4368120;32;20300;-73
2024/01/02 03:16:04;;;;;;;0.30;0.30;;;;;;;5.15;77.75;94809.63;4353345;32;20273;-72
2024/01/02 03:18:29;;;;;;;0.30;0.30;;;;;;;5.12;77.37;94807.53;4332072;32;20188;-72
2024/01/02 03:20:57;;;;;;;0.10;0.10;;;;;;;4.86;78.05;94809.50;4362065;32;20403;-72
2024/01/02 03:23:23;;;;;;;1.80;0.30;;;;;;;4.91;78.06;94803.44;4363895;32;20189;-71
2024/01/02 03:25:49;;;;;;;2.30;0.20;;;;;;;5.01;77.73;94808.63;4358934;32;20277;-71
2024/01/02 03:28:15;;;;;;;0.30;0.30;;;;;;;5.07;77.41;94791.78;4367833;32;20308;-72
2024/01/02 03:30:40;;;;;;;0.00;0.00;;;;;;;5.06;77.15;94788.37;4353048;32;20299;-72
2024/01/02 03:33:06;;;;;;;0.07;0.07;;;;;;;5.03;76.71;94791.53;4362286;32;20594;-72
2024/01/02 03:35:31;;;;;;;0.10;0.10;;;;;;;5.15;76.55;94780.72;4373579;32;20212;-72
2024/01/02 03:37:57;;;;;;;0.30;0.30;;;;;;;4.91;76.89;94775.31;4381128;32;20184;-72
2024/01/02 03:40:23;;;;;;;0.20;0.20;;;;;;;4.79;77.05;94775.62;4364881;32;20180;-72
2024/01/02 03:42:48;;;;;;;0.10;0.10;;;;;;;4.81;76.66;94757.75;4377640;32;20242;-71
2024/01/02 03:45:14;;;;;;;0.07;0.07;;;;;;;4.65;77.44;94763.34;4376954;32;20296;-72
2024/01/02 03:47:40;;;;;;;0.20;0.20;;;;;;;4.79;76.75;94756.44;4364722;32;20299;-72
2024/01/02 03:50:08;;;;;;;0.30;0.30;;;;;;;5.05;76.00;94762.34;4365916;32;20192;-72
2024/01/02 03:52:34;;;;;;;0.23;0.23;;;;;;;5.03;75.82;94752.09;4360549;32;20338;-72
2024/01/02 03:54:59;;;;;;;0.20;0.10;;;;;;;5.11;75.23;94756.81;4366892;32;20287;-72
2024/01/02 03:57:26;;;;;;;0.37;0.37;;;;;;;4.92;75.29;94741.94;4358022;32;20193;-72
2024/01/02 03:59:55;;;;;;;0.30;0.30;;;;;;;4.92;74.98;94741.94;4377967;32;20218;-72
2024/01/02 04:02:20;;;;;;;0.43;0.43;;;;;;;5.02;74.85;94747.13;4365755;32;20333;-69
2024/01/02 04:04:46;;;;;;;1.30;0.47;;;;;;;5.01;74.52;94740.28;4387714;32;20330;-72
2024/01/02 04:07:13;;;;;;;0.07;0.07;;;;;;;4.79;75.05;94738.84;4375000;32;20307;-71
2024/01/02 04:09:39;;;;;;;0.13;0.13;;;;;;;4.68;74.64;94732.06;4377543;32;20267;-71
2024/01/02 04:12:05;;;;;;;2.80;0.40;;;;;;;5.13;73.37;94730.25;4386374;32;20290;-71
2024/01/02 04:14:32;;;;;;;0.10;0.10;;;;;;;5.07;73.49;94724.22;4368429;32;20354;-72
2024/01/02 04:16:57;;;;;;;0.00;0.00;;;;;;;5.11;73.54;94719.22;4375643;32;20304;-71
2024/01/02 04:19:22;;;;;;;0.10;0.10;;;;;;;4.91;73.50;94711.47;4369556;32;20298;-71
2024/01/02 04:21:49;;;;;;;0.30;0.20;;;;;;;5.06;73.09;94704.25;4358193;32;20181;-71
2024/01/02 04:24:16;;;;;;;0.20;0.20;;;;;;;4.85;73.62;94700.19;4366332;32;20220;-72
2024/01/02 04:26:43;;;;;;;0.10;0.10;;;;;;;5.12;72.90;94707.62;4390495;32;20264;-72
2024/01/02 04:29:09;;;;;;;0.20;0.20;;;;;;;5.11;72.85;94714.75;4390513;32;20336;-72
2024/01/02 04:31:36;;;;;;;0.37;0.37;;;;;;;5.25;72.05;94719.37;4373763;32;20341;-72
2024/01/02 04:34:02;;;;;;;0.17;0.17;;;;;;;5.34;71.72;94712.47;4382763;32;20284;-72
2024/01/02 04:36:28;;;;;;;0.07;0.07;;;;;;;5.26;71.61;94724.34;4379070;32;20276;-72
2024/01/02 04:38:55;;;;;;;0.10;0.10;;;;;;;5.17;72.44;94724.19;4391842;32;20311;-71
2024/01/02 04:41:23;;;;;;;0.10;0.10;;;;;;;5.38;71.73;94721.41;4368606;32;20192;-72
2024/01/02 04:43:49;;;;;;;1.80;0.37;;;;;;;5.25;71.48;94716.75;4338290;32;20273;-74
2024/01/02 04:46:15;;;;;;;1.90;0.27;;;;;;;5.15;72.26;94715.00;4340911;32;20299;-74
2024/01/02 04:48:40;;;;;;;1.70;0.37;;;;;;;5.27;72.09;94717.25;4373682;32;20268;-74
2024/01/02 04:51:06;;;;;;;0.10;0.10;;;;;;;4.96;72.78;94700.94;4377659;32;20212;-74
2024/01/02 04:53:32;;;;;;;0.30;0.30;;;;;;;4.82;73.17;94700.72;4395157;32;20185;-72
2024/01/02 04:55:58;;;;;;;0.27;0.27;;;;;;;4.97;73.38;94691.97;4372580;32;20293;-72
2024/01/02 04:58:26;;;;;;;0.20;0.20;;;;;;;4.90;73.11;94681.00;4385975;32;20207;-72
2024/01/02 05:00:52;;;;;;;0.00;0.00;;;;;;;4.82;73.57;94677.88;4388605;32;20316;-72
2024/01/02 05:03:17;;;;;;;0.37;0.37;;;;;;;4.91;73.29;94667.56;4351386;32;20364;-68
2024/01/02 05:05:44;;;;;;;0.27;0.27;;;;;;;4.91;73.25;94667.56;4375876;32;20184;-73
2024/01/02 05:08:09;;;;;;;0.13;0.13;;;;;;;4.91;73.06;94666.78;4367512;32;20207;-72
2024/01/02 05:10:36;;;;;;;0.20;0.20;;;;;;;4.96;72.59;94666.75;4374953;32;20262;-73
2024/01/02 05:13:02;;;;;;;0.40;0.40;;;;;;;5.15;71.67;94662.41;4383917;32;20176;-72
2024/01/02 05:15:27;;;;;;;0.10;0.10;;;;;;;5.00;71.50;94662.50;4368715;32;20314;-72
2024/01/02 05:17:53;;;;;;;0.13;0.13;;;;;;;5.12;71.34;94660.31;4371060;32;20282;-71
2024/01/02 05:20:18;;;;;;;0.00;0.00;;;;;;;5.19;71.45;94658.19;4371024;32;20214;-71
2024/01/02 05:22:43;;;;;;;0.13;0.13;;;;;;;5.23;71.02;94655.75;4369808;32;20238;-72
2024/01/02 05:25:09;;;;;;;0.20;0.20;;;;;;;5.11;71.10;94637.72;4375416;32;20185;-72
2024/01/02 05:27:35;;;;;;;0.63;0.40;;;;;;;5.03;70.55;94627.78;4375479;32;20274;-72
2024/01/02 05:30:01;;;;;;;1.40;0.57;;;;;;;5.17;69.90;94610.34;4382698;32;20280;-72
2024/01/02 05:32:28;;;;;;;0.20;0.20;;;;;;;5.30;70.23;94616.78;4377877;32;20199;-73
2024/01/02 05:34:53;;;;;;;1.23;0.33;;;;;;;5.46;70.38;94615.56;4363023;32;20303;-73
2024/01/02 05:37:18;;;;;;;0.00;0.00;;;;;;;5.56;69.67;94609.44;4363078;32;20304;-72
2024/01/02 05:39:44;;;;;;;0.10;0.10;;;;;;;5.74;68.15;94611.34;4389570;32;20203;-73
2024/01/02 05:42:10;;;;;;;0.00;0.00;;;;;;;5.82;68.18;94593.06;4380994;32;20236;-72
2024/01/02 05:44:36;;;;;;;0.00;0.00;;;;;;;5.85;67.14;94584.63;4368938;32;20205;-72
2024/01/02 05:47:01;;;;;;;0.00;0.00;;;;;;;5.88;65.84;94564.84;4358135;32;20295;-73
2024/01/02 05:49:27;;;;;;;0.03;0.03;;;;;;;5.91;65.48;94558.28;4382017;32;20188;-72
2024/01/02 05:51:52;;;;;;;0.00;0.00;;;;;;;5.99;64.26;94561.09;4374691;32;20283;-71
2024/01/02 05:54:19;;;;;;;0.10;0.10;;;;;;;6.07;64.78;94563.06;4380837;32;20361;-72
2024/01/02 05:56:45;;;;;;;0.33;0.27;;;;;;;6.09;65.22;94553.03;4385785;32;20242;-72
2024/01/02 05:59:11;;;;;;;0.00;0.00;;;;;;;6.08;64.98;94546.22;4359935;32;20269;-72
2024/01/02 06:01:37;;;;;;;0.00;0.00;;;;;;;6.03;64.17;94540.22;4364933;32;20287;-72
2024/01/02 06:04:03;;;;;;;0.10;0.10;;;;;;;6.22;63.71;94545.50;4369415;32;20280;-72
2024/01/02 06:06:29;;;;;;;0.30;0.30;;;;;;;6.21;63.28;94531.56;4371776;32;20185;-72
2024/01/02 06:08:55;;;;;;;0.10;0.10;;;;;;;6.05;63.21;94533.59;4362507;32;20306;-72
2024/01/02 06:11:22;;;;;;;0.50;0.50;;;;;;;6.01;63.90;94526.56;4386065;32;20211;-73
2024/01/02 06:13:47;;;;;;;0.30;0.30;;;;;;;6.10;64.15;94520.37;4377066;32;20379;-71
2024/01/02 06:16:13;;;;;;;0.30;0.30;;;;;;;6.14;62.36;94521.37;4369899;32;20276;-72
2024/01/02 06:18:38;;;;;;;0.90;0.47;;;;;;;6.29;63.28;94516.97;4359310;32;20180;-72
2024/01/02 06:21:05;;;;;;;0.40;0.40;;;;;;;6.33;63.32;94518.75;4381207;32;20188;-72
2024/01/02 06:23:35;;;;;;;0.00;0.00;;;;;;;6.38;62.77;94509.97;4342268;32;20199;-72
2024/01/02 06:26:02;;;;;;;0.10;0.00;;;;;;;6.48;63.72;94512.44;4322541;32;20296;-72
2024/01/02 06:28:27;;;;;;;0.20;0.13;;;;;;;6.50;63.43;94507.69;4374539;32;20277;-72
2024/01/02 06:30:53;;;;;;;0.27;0.20;;;;;;;6.66;63.02;94503.72;4373851;32;20291;-72
2024/01/02 06:33:19;;;;;;;0.20;0.20;;;;;;;6.72;63.34;94513.13;4368674;32;20180;-72
2024/01/02 06:35:46;;;;;;;0.23;0.23;;;;;;;6.75;63.32;94506.50;4360813;32;20287;-72
2024/01/02 06:38:13;;;;;;;0.20;0.20;;;;;;;6.79;63.70;94504.84;4378042;32;20285;-72
2024/01/02 06:40:39;;;;;;;0.00;0.00;;;;;;;6.80;64.19;94504.56;4344056;32;20281;-72
2024/01/02 06:43:05;;;;;;;0.00;0.00;;;;;;;6.72;65.20;94505.22;4380834;32;20277;-72
2024/01/02 06:45:31;;;;;;;0.23;0.23;;;;;;;6.82;65.47;94504.28;4357290;32;20326;-72
2024/01/02 06:47:57;;;;;;;0.27;0.27;;;;;;;6.82;64.16;94489.25;4372805;32;20232;-72
2024/01/02 06:50:24;;;;;;;0.20;0.20;;;;;;;6.80;63.33;94490.59;4365504;32;20277;-72
2024/01/02 06:52:53;;;;;;;0.03;0.03;;;;;;;6.68;63.36;94477.88;4375995;32;20207;-71
2024/01/02 06:55:18;;;;;;;0.20;0.20;;;;;;;6.66;64.25;94453.66;4367560;32;20284;-72
2024/01/02 06:57:43;;;;;;;0.03;0.03;;;;;;;6.73;64.83;94451.44;4365068;32;20268;-72
2024/01/02 07:00:10;;;;;;;0.07;0.07;;;;;;;6.75;63.96;94466.97;4388689;32;20202;-72
2024/01/02 07:02:39;;;;;;;2.77;0.23;;;;;;;6.76;64.08;94458.78;4351379;32;20181;-72
2024/01/02 07:05:07;;;;;;;0.17;0.17;;;;;;;6.88;63.24;94453.78;4306654;32;20298;-72
2024/01/02 07:07:32;;;;;;;0.20;0.20;;;;;;;6.90;62.88;94443.75;4369422;32;20344;-72
2024/01/02 07:09:59;;;;;;;0.20;0.20;;;;;;;6.68;64.13;94467.31;4389885;32;20280;-72
2024/01/02 07:12:28;;;;;;;0.10;0.10;;;;;;;6.81;63.37;94468.44;4388484;32;20211;-73
2024/01/02 07:14:57;;;;;;;0.10;0.10;;;;;;;6.68;63.20;94472.59;4380780;32;20295;-72
2024/01/02 07:17:23;;;;;;;0.30;0.30;;;;;;;6.59;63.80;94474.34;4357635;32;20281;-72
2024/01/02 07:19:51;;;;;;;0.20;0.20;;;;;;;6.66;63.41;94474.75;4377662;32;20289;-72
2024/01/02 07:22:19;;;;;;;0.40;0.40;;;;;;;6.59;63.66;94461.19;4364513;32;20189;-70
2024/01/02 07:24:46;;;;;;;0.10;0.10;;;;;;;6.43;64.06;94454.59;4358220;32;20292;-72
2024/01/02 07:27:14;;;;;;;1.03;0.30;;;;;;;6.40;64.30;94439.38;4357928;32;20366;-72
2024/01/02 07:29:40;;;;;;;0.40;0.40;;;;;;;6.40;64.07;94461.22;4373288;32;20285;-72
2024/01/02 07:32:06;;;;;;;0.10;0.10;;;;;;;5.96;65.65;94455.56;4374454;32;20338;-72
2024/01/02 07:34:31;;;;;;;0.30;0.30;;;;;;;6.06;65.36;94453.56;4373513;32;20264;-72
2024/01/02 07:36:59;;;;;;;0.30;0.30;;;;;;;5.94;65.81;94447.97;4364035;32;20180;-71
2024/01/02 07:39:26;;;;;;;2.00;0.23;;;;;;;6.04;65.78;94432.00;4353977;32;20258;-72
2024/01/02 07:41:52;;;;;;;0.10;0.10;;;;;;;5.91;66.07;94422.22;4357469;32;20281;-72
2024/01/02 07:44:18;;;;;;;0.20;0.20;;;;;;;5.44;66.87;94426.50;4370165;32;20353;-63
2024/01/02 07:46:44;;;;;;;0.20;0.20;;;;;;;5.27;67.83;94422.78;4338355;32;20280;-72
2024/01/02 07:49:10;;;;;;;0.07;0.07;;;;;;;5.35;67.88;94414.28;4369193;32;20180;-72
2024/01/02 07:51:37;;;;;;;0.30;0.30;;;;;;;5.59;67.87;94398.44;4362869;32;20280;-72
2024/01/02 07:54:02;;;;;;;0.30;0.30;;;;;;;5.58;66.90;94387.12;4326720;32;20328;-73
2024/01/02 07:56:30;;;;;;;0.00;0.00;;;;;;;5.36;67.51;94379.81;4351389;32;20280;-72
2024/01/02 07:58:57;;;;;;;0.33;0.33;;;;;;;5.43;67.36;94390.75;4370620;32;20181;-71
2024/01/02 08:01:24;;;;;;;0.30;0.30;;;;;;;5.65;66.73;94402.53;4357356;32;20326;-71
2024/01/02 08:03:49;;;;;;;0.23;0.23;;;;;;;5.85;66.17;94418.03;4355016;32;20200;-71
2024/01/02 08:06:16;;;;;;;0.93;0.43;;;;;;;5.99;64.92;94413.69;4360072;32;20279;-72
2024/01/02 08:08:41;;;;;;;0.13;0.13;;;;;;;6.11;64.57;94426.38;4359280;32;20211;-72
2024/01/02 08:11:09;;;;;;;0.40;0.40;;;;;;;6.06;64.81;94427.22;4349466;32;20273;-73
2024/01/02 08:13:37;;;;;;;0.10;0.10;;;;;;;6.05;64.90;94425.66;4352583;32;20215;-72
2024/01/02 08:16:05;;;;;;;0.20;0.20;;;;;;;6.20;65.07;94419.41;4360241;32;20296;-73
2024/01/02 08:18:39;;;;;;;0.13;0.13;;;;;;;6.01;64.92;94414.16;4312845;32;20377;-73
2024/01/02 08:21:07;;;;;;;0.37;0.30;;;;;;;6.19;63.76;94416.00;4342320;32;20362;-72
2024/01/02 08:23:33;;;;;;;0.10;0.10;;;;;;;6.25;63.75;94405.34;4340166;32;20299;-72
2024/01/02 08:25:58;;;;;;;0.40;0.40;;;;;;;6.09;63.44;94404.81;4377827;32;20307;-72
2024/01/02 08:28:25;;;;;;;0.47;0.47;;;;;;;6.18;63.79;94398.63;4368450;32;20288;-72
2024/01/02 08:30:52;;;;;;;1.07;0.20;;;;;;;6.34;63.67;94393.88;4381392;32;20218;-71
2024/01/02 08:33:18;;;;;;;0.20;0.20;;;;;;;6.27;64.34;94393.47;4378127;32;20324;-61
2024/01/02 08:35:45;;;;;;;0.10;0.10;;;;;;;6.17;64.70;94394.44;4373736;32;20387;-72
2024/01/02 08:38:10;;;;;;;0.27;0.27;;;;;;;6.09;65.94;94389.81;4325232;32;20360;-72
2024/01/02 08:40:35;;;;;;;0.73;0.50;;;;;;;6.34;65.15;94374.66;4362902;32;20279;-72
2024/01/02 08:43:02;;;;;;;0.20;0.20;;;;;;;6.27;65.48;94382.16;4355660;32;20215;-72
2024/01/02 08:45:30;;;;;;;0.20;0.20;;;;;;;6.37;65.69;94382.00;4332939;32;20208;-72
2024/01/02 08:47:55;;;;;;;0.10;0.10;;;;;;;6.37;66.11;94382.00;4324108;32;20301;-72
2024/01/02 08:50:21;;;;;;;0.57;0.43;;;;;;;6.43;66.14;94378.22;4368790;32;20276;-71
2024/01/02 08:52:47;;;;;;;0.10;0.10;;;;;;;6.53;66.04;94373.53;4380521;32;20203;-72
2024/01/02 08:55:14;;;;;;;0.20;0.20;;;;;;;6.33;66.55;94370.47;4345779;32;20287;-72
2024/01/02 08:57:40;;;;;;;0.50;0.43;;;;;;;6.40;67.08;94370.88;4381182;32;20310;-72
2024/01/02 09:00:10;;;;;;;0.10;0.10;;;;;;;6.57;65.82;94370.31;4369819;32;20280;-72
2024/01/02 09:02:36;;;;;;;0.17;0.17;;;;;;;6.58;65.74;94382.41;4384739;32;20184;-72
2024/01/02 09:05:02;;;;;;;0.43;0.33;;;;;;;6.47;65.64;94374.69;4384248;32;20298;-72
2024/01/02 09:07:27;;;;;;;0.27;0.27;;;;;;;6.62;65.40;94378.91;4382772;32;20293;-72
2024/01/02 09:09:52;;;;;;;0.77;0.20;;;;;;;6.51;65.44;94377.53;4345427;32;20201;-72
2024/01/02 09:12:19;;;;;;;0.10;0.10;;;;;;;6.34;65.85;94383.34;4383196;32;20209;-69
2024/01/02 09:14:44;;;;;;;0.10;0.10;;;;;;;6.27;66.60;94380.28;4354181;32;20268;-73
2024/01/02 09:17:09;;;;;;;0.00;0.00;;;;;;;6.43;66.98;94381.63;4344075;32;20311;-72
2024/01/02 09:19:36;;;;;;;0.10;0.10;;;;;;;6.55;65.92;94381.94;4339320;32;20192;-72
2024/01/02 09:22:02;;;;;;;0.27;0.27;;;;;;;6.66;66.26;94374.59;4380824;32;20192;-72
2024/01/02 09:24:28;;;;;;;0.10;0.10;;;;;;;6.61;68.53;94387.09;4361927;32;20312;-72
2024/01/02 09:26:58;;;;;;;0.10;0.10;;;;;;;6.69;67.62;94378.50;4345030;32;20196;-72
2024/01/02 09:29:24;;;;;;;0.10;0.10;;;;;;;6.62;67.29;94386.81;4344331;32;20189;-72
2024/01/02 09:31:51;;;;;;;0.10;0.10;;;;;;;6.62;69.35;94373.66;4317955;32;20284;-69
2024/01/02 09:34:21;;;;;;;0.10;0.10;;;;;;;6.68;68.56;94380.38;4361170;32;20207;-72
2024/01/02 09:37:00;;;;;;;0.67;0.50;;;;;;;6.75;69.61;94385.25;4330482;32;20351;-72
2024/01/02 09:39:25;;;;;;;0.47;0.47;;;;;;;6.89;68.60;94378.91;4359680;32;20283;-72
2024/01/02 09:42:20;;;;;;;0.00;0.00;;;;;;;6.86;68.69;94371.59;4358764;32;20462;-72
2024/01/02 09:44:54;;;;;;;0.10;0.10;;;;;;;6.98;68.91;94371.13;4368719;32;20189;-72
2024/01/02 09:47:44;;;;;;;0.20;0.20;;;;;;;7.01;69.95;94361.84;4374686;32;20281;-71
2024/01/02 09:50:13;;;;;;;0.00;0.00;;;;;;;6.75;71.81;94364.97;4381686;32;20287;-72
2024/01/02 09:53:02;;;;;;;0.10;0.10;;;;;;;7.00;70.82;94362.91;4361756;32;20361;-72
2024/01/02 09:55:54;;;;;;;0.67;0.30;;;;;;;6.84;72.48;94357.16;4358873;32;20307;-72
2024/01/02 09:58:31;;;;;;;0.57;0.57;;;;;;;6.84;73.19;94352.69;4353984;32;20431;-71
2024/01/02 10:01:31;;;;;;;0.00;0.00;;;;;;;6.83;74.18;94347.69;4363660;32;20280;-72
2024/01/02 10:04:05;;;;;;;0.40;0.23;;;;;;;6.94;74.67;94345.63;4360608;32;20317;-72
2024/01/02 10:06:46;;;;;;;0.10;0.10;;;;;;;7.01;75.06;94335.47;4392428;32;20272;-72
2024/01/02 10:10:03;;;;;;;0.17;0.17;;;;;;;7.09;75.44;94340.03;4379244;32;20303;-72
2024/01/02 10:12:53;;;;;;;0.00;0.00;;;;;;;7.14;76.74;94332.03;4337018;32;20279;-72
2024/01/02 10:15:51;;;;;;;0.00;0.00;;;;;;;7.28;77.20;94335.41;4373185;32;20268;-71
2024/01/02 10:18:34;;;;;;;0.73;0.47;;;;;;;7.55;77.21;94310.81;4377790;32;20304;-71
2024/01/02 10:21:23;;;;;;;0.10;0.10;;;;;;;7.72;77.25;94308.31;4380751;32;20366;-72
2024/01/02 10:24:06;;;;;;;0.00;0.00;;;;;;;7.81;77.75;94308.37;4373042;32;20285;-71
2024/01/02 10:26:37;;;;;;;0.10;0.10;;;;;;;7.95;77.44;94301.16;4378002;32;20277;-72
2024/01/02 10:29:15;;;;;;;0.00;0.00;;;;;;;8.07;77.26;94290.84;4370494;32;20329;-72
2024/01/02 10:32:04;;;;;;;0.00;0.00;;;;;;;8.20;78.35;94300.53;4362998;32;20291;-73
2024/01/02 10:34:37;;;;;;;0.00;0.00;;;;;;;8.44;77.18;94300.22;4344976;32;20370;-72
2024/01/02 10:37:06;;;;;;;0.10;0.10;;;;;;;8.54;77.68;94291.22;4373058;32;20283;-72
2024/01/02 10:39:59;;;;;;;0.00;0.00;;;;;;;8.68;77.27;94299.84;4387800;32;20326;-71
2024/01/02 10:42:50;;;;;;;0.03;0.03;;;;;;;8.70;77.43;94308.25;4362610;32;20287;-71
2024/01/02 10:45:49;;;;;;;0.03;0.03;;;;;;;8.81;77.40;94298.94;4330195;32;20295;-72
2024/01/02 10:48:21;;;;;;;0.07;0.07;;;;;;;8.83;77.96;94304.72;4385175;32;20284;-72
2024/01/02 10:51:08;;;;;;;0.10;0.10;;;;;;;8.81;77.83;94291.00;4380262;32;20300;-72
2024/01/02 10:53:57;;;;;;;0.00;0.00;;;;;;;8.82;78.39;94283.84;4389054;32;20276;-71
2024/01/02 10:56:49;;;;;;;0.00;0.00;;;;;;;8.92;77.73;94291.53;4387477;32;20289;-71
2024/01/02 10:59:36;;;;;;;0.00;0.00;;;;;;;8.96;77.65;94287.94;4350843;32;20276;-71
2024/01/02 11:02:39;;;;;;;0.10;0.10;;;;;;;9.03;78.48;94287.47;4366014;32;20324;-73
2024/01/02 11:05:23;;;;;;;0.00;0.00;;;;;;;9.15;77.66;94281.56;4376727;32;20371;-71
2024/01/02 11:08:04;;;;;;;0.00;0.00;;;;;;;9.13;78.18;94286.41;4361338;32;20286;-71
2024/01/02 11:10:40;;;;;;;0.00;0.00;;;;;;;9.12;78.92;94271.63;4367583;32;20355;-70
2024/01/02 11:13:11;;;;;;;0.00;0.00;;;;;;;9.21;78.61;94275.06;4370625;32;20272;-71
2024/01/02 11:15:40;;;;;;;0.10;0.10;;;;;;;9.24;79.25;94275.22;4329177;32;20301;-71
2024/01/02 11:18:07;;;;;;;0.00;0.00;;;;;;;9.21;81.00;94272.41;4359545;32;20324;-72
2024/01/02 11:21:04;;;;;;;0.00;0.00;;;;;;;9.23;81.97;94262.28;4362128;32;20285;-71
2024/01/02 11:23:39;;;;;;;0.00;0.00;;;;;;;9.26;82.46;94256.38;4348529;32;20276;-72
2024/01/02 11:26:28;;;;;;;0.00;0.00;;;;;;;9.24;83.36;94269.94;4359621;32;20321;-71
2024/01/02 11:29:00;;;;;;;0.00;0.00;;;;;;;9.27;83.43;94263.22;4345960;32;20317;-72
2024/01/02 11:31:30;;;;;;;0.00;0.00;;;;;;;9.19;84.58;94266.63;4333355;32;20300;-71
2024/01/02 11:34:04;;;;;;;0.00;0.00;;;;;;;9.17;84.80;94263.53;4353746;32;20329;-71
2024/01/02 11:36:35;;;;;;;0.00;0.00;;;;;;;9.27;84.03;94250.00;4346211;32;20300;-72
2024/01/02 11:39:11;;;;;;;0.00;0.00;;;;;;;9.30;83.92;94252.03;4383798;32;20308;-72
2024/01/02 11:41:56;;;;;;;0.10;0.10;;;;;;;9.47;82.76;94238.78;4346911;32;20296;-71
2024/01/02 11:44:49;;;;;;;0.00;0.00;;;;;;;9.55;82.78;94222.13;4354069;32;20362;-65
2024/01/02 11:47:53;;;;;;;0.30;0.20;;;;;;;9.59;82.31;94228.34;4349524;32;20191;-73
2024/01/02 11:50:32;;;;;;;0.00;0.00;;;;;;;9.58;82.44;94229.44;4355722;32;20327;-71